sensor_id;sensor_type;location;lat;lon;timestamp;P1;durP1;ratioP1;P2;durP2;ratioP2
36243;SDS011;22284;49.956;19.816;2022-12-24T00:01:05;24.63;;;13.15;;
36243;SDS011;22284;49.956;19.816;2022-12-24T00:04:06;23.67;;;13.13;;
36243;SDS011;22284;49.956;19.816;2022-12-24T00:07:07;22.50;;;11.97;;
36243;SDS011;22284;49.956;19.816;2022-12-24T00:10:09;21.07;;;11.40;;
36243;SDS011;22284;49.956;19.816;2022-12-24T00:13:10;19.63;;;10.23;;
36243;SDS011;22284;49.956;19.816;2022-12-24T00:16:11;19.12;;;10.32;;
36243;SDS011;22284;49.956;19.816;2022-12-24T00:19:13;21.23;;;10.57;;
36243;SDS011;22284;49.956;19.816;2022-12-24T00:22:14;22.52;;;10.82;;
36243;SDS011;22284;49.956;19.816;2022-12-24T00:25:15;21.30;;;9.90;;
36243;SDS011;22284;49.956;19.816;2022-12-24T00:28:17;20.52;;;10.55;;
36243;SDS011;22284;49.956;19.816;2022-12-24T00:31:18;22.65;;;11.70;;
36243;SDS011;22284;49.956;19.816;2022-12-24T00:34:21;23.52;;;12.33;;
36243;SDS011;22284;49.956;19.816;2022-12-24T00:37:23;24.25;;;11.93;;
36243;SDS011;22284;49.956;19.816;2022-12-24T00:40:24;21.87;;;11.43;;
36243;SDS011;22284;49.956;19.816;2022-12-24T00:43:25;19.15;;;9.08;;
36243;SDS011;22284;49.956;19.816;2022-12-24T00:46:28;20.75;;;9.78;;
36243;SDS011;22284;49.956;19.816;2022-12-24T00:49:32;29.05;;;13.85;;
36243;SDS011;22284;49.956;19.816;2022-12-24T00:52:33;23.57;;;11.68;;
36243;SDS011;22284;49.956;19.816;2022-12-24T00:55:35;24.77;;;12.00;;
36243;SDS011;22284;49.956;19.816;2022-12-24T00:58:36;20.80;;;9.68;;
36243;SDS011;22284;49.956;19.816;2022-12-24T01:01:37;24.57;;;14.00;;
36243;SDS011;22284;49.956;19.816;2022-12-24T01:04:38;30.27;;;17.07;;
36243;SDS011;22284;49.956;19.816;2022-12-24T01:07:58;29.25;;;17.17;;
36243;SDS011;22284;49.956;19.816;2022-12-24T01:10:59;31.55;;;17.85;;
36243;SDS011;22284;49.956;19.816;2022-12-24T01:14:01;34.75;;;20.45;;
36243;SDS011;22284;49.956;19.816;2022-12-24T01:17:03;36.30;;;20.40;;
36243;SDS011;22284;49.956;19.816;2022-12-24T01:20:05;32.70;;;19.60;;
36243;SDS011;22284;49.956;19.816;2022-12-24T01:23:10;31.85;;;17.92;;
36243;SDS011;22284;49.956;19.816;2022-12-24T01:26:11;28.57;;;15.55;;
36243;SDS011;22284;49.956;19.816;2022-12-24T01:29:12;26.93;;;15.32;;
36243;SDS011;22284;49.956;19.816;2022-12-24T01:32:13;29.57;;;16.15;;
36243;SDS011;22284;49.956;19.816;2022-12-24T01:35:14;31.90;;;16.67;;
36243;SDS011;22284;49.956;19.816;2022-12-24T01:38:16;29.77;;;16.10;;
36243;SDS011;22284;49.956;19.816;2022-12-24T01:41:18;28.73;;;15.88;;
36243;SDS011;22284;49.956;19.816;2022-12-24T01:44:41;29.13;;;16.37;;
36243;SDS011;22284;49.956;19.816;2022-12-24T01:47:44;32.28;;;17.07;;
36243;SDS011;22284;49.956;19.816;2022-12-24T01:50:45;29.77;;;16.10;;
36243;SDS011;22284;49.956;19.816;2022-12-24T01:53:50;33.92;;;18.27;;
36243;SDS011;22284;49.956;19.816;2022-12-24T01:56:56;28.77;;;16.00;;
36243;SDS011;22284;49.956;19.816;2022-12-24T02:00:02;31.60;;;16.97;;
36243;SDS011;22284;49.956;19.816;2022-12-24T02:03:10;32.42;;;17.02;;
36243;SDS011;22284;49.956;19.816;2022-12-24T02:06:11;30.02;;;16.95;;
36243;SDS011;22284;49.956;19.816;2022-12-24T02:09:17;32.10;;;16.57;;
36243;SDS011;22284;49.956;19.816;2022-12-24T02:12:18;29.37;;;16.57;;
36243;SDS011;22284;49.956;19.816;2022-12-24T02:15:19;31.70;;;16.87;;
36243;SDS011;22284;49.956;19.816;2022-12-24T02:24:55;27.87;;;15.32;;
36243;SDS011;22284;49.956;19.816;2022-12-24T02:32:05;78.07;;;33.35;;
36243;SDS011;22284;49.956;19.816;2022-12-24T02:35:26;35.35;;;17.98;;
36243;SDS011;22284;49.956;19.816;2022-12-24T02:38:40;33.00;;;18.17;;
36243;SDS011;22284;49.956;19.816;2022-12-24T02:41:51;36.73;;;19.12;;
36243;SDS011;22284;49.956;19.816;2022-12-24T02:45:20;30.90;;;17.77;;
36243;SDS011;22284;49.956;19.816;2022-12-24T02:48:23;30.17;;;16.90;;
36243;SDS011;22284;49.956;19.816;2022-12-24T02:54:28;27.73;;;15.30;;
36243;SDS011;22284;49.956;19.816;2022-12-24T02:57:45;28.55;;;15.08;;
36243;SDS011;22284;49.956;19.816;2022-12-24T03:08:05;22.93;;;12.63;;
36243;SDS011;22284;49.956;19.816;2022-12-24T03:11:22;20.20;;;11.13;;
36243;SDS011;22284;49.956;19.816;2022-12-24T03:14:23;22.50;;;11.50;;
36243;SDS011;22284;49.956;19.816;2022-12-24T03:17:25;22.30;;;11.67;;
36243;SDS011;22284;49.956;19.816;2022-12-24T03:20:36;23.85;;;11.05;;
36243;SDS011;22284;49.956;19.816;2022-12-24T03:23:37;28.77;;;16.37;;
36243;SDS011;22284;49.956;19.816;2022-12-24T03:26:38;25.73;;;14.37;;
36243;SDS011;22284;49.956;19.816;2022-12-24T03:29:41;27.93;;;15.25;;
36243;SDS011;22284;49.956;19.816;2022-12-24T03:32:43;28.27;;;15.27;;
36243;SDS011;22284;49.956;19.816;2022-12-24T03:35:44;26.68;;;15.13;;
36243;SDS011;22284;49.956;19.816;2022-12-24T03:38:46;27.43;;;14.90;;
36243;SDS011;22284;49.956;19.816;2022-12-24T03:41:47;24.72;;;14.13;;
36243;SDS011;22284;49.956;19.816;2022-12-24T03:44:48;25.82;;;13.53;;
36243;SDS011;22284;49.956;19.816;2022-12-24T03:47:49;24.10;;;13.90;;
36243;SDS011;22284;49.956;19.816;2022-12-24T03:50:50;22.55;;;12.37;;
36243;SDS011;22284;49.956;19.816;2022-12-24T03:53:51;23.27;;;14.10;;
36243;SDS011;22284;49.956;19.816;2022-12-24T03:56:53;24.70;;;14.70;;
36243;SDS011;22284;49.956;19.816;2022-12-24T03:59:54;29.98;;;16.67;;
36243;SDS011;22284;49.956;19.816;2022-12-24T04:02:55;27.22;;;15.58;;
36243;SDS011;22284;49.956;19.816;2022-12-24T04:06:04;30.62;;;16.87;;
36243;SDS011;22284;49.956;19.816;2022-12-24T04:09:11;32.70;;;18.15;;
36243;SDS011;22284;49.956;19.816;2022-12-24T04:12:12;35.93;;;20.80;;
36243;SDS011;22284;49.956;19.816;2022-12-24T04:15:13;40.40;;;22.27;;
36243;SDS011;22284;49.956;19.816;2022-12-24T04:18:14;35.38;;;20.43;;
36243;SDS011;22284;49.956;19.816;2022-12-24T04:21:15;33.50;;;19.57;;
36243;SDS011;22284;49.956;19.816;2022-12-24T04:24:17;35.52;;;19.67;;
36243;SDS011;22284;49.956;19.816;2022-12-24T04:27:18;34.30;;;19.40;;
36243;SDS011;22284;49.956;19.816;2022-12-24T04:30:19;32.42;;;18.92;;
36243;SDS011;22284;49.956;19.816;2022-12-24T04:33:20;33.53;;;19.97;;
36243;SDS011;22284;49.956;19.816;2022-12-24T04:36:21;33.63;;;19.50;;
36243;SDS011;22284;49.956;19.816;2022-12-24T04:39:22;34.45;;;19.50;;
36243;SDS011;22284;49.956;19.816;2022-12-24T04:42:23;33.37;;;19.47;;
36243;SDS011;22284;49.956;19.816;2022-12-24T04:45:24;32.03;;;18.07;;
36243;SDS011;22284;49.956;19.816;2022-12-24T04:48:25;30.60;;;17.77;;
36243;SDS011;22284;49.956;19.816;2022-12-24T04:51:26;32.23;;;17.92;;
36243;SDS011;22284;49.956;19.816;2022-12-24T04:54:28;32.70;;;19.07;;
36243;SDS011;22284;49.956;19.816;2022-12-24T04:57:30;33.53;;;19.50;;
36243;SDS011;22284;49.956;19.816;2022-12-24T05:00:33;33.83;;;19.73;;
36243;SDS011;22284;49.956;19.816;2022-12-24T05:03:34;31.40;;;18.93;;
36243;SDS011;22284;49.956;19.816;2022-12-24T05:06:35;36.00;;;20.30;;
36243;SDS011;22284;49.956;19.816;2022-12-24T05:09:36;34.67;;;19.77;;
36243;SDS011;22284;49.956;19.816;2022-12-24T05:12:37;34.77;;;19.90;;
36243;SDS011;22284;49.956;19.816;2022-12-24T05:15:38;31.50;;;18.07;;
36243;SDS011;22284;49.956;19.816;2022-12-24T05:18:39;32.10;;;18.17;;
36243;SDS011;22284;49.956;19.816;2022-12-24T05:21:40;37.33;;;22.20;;
36243;SDS011;22284;49.956;19.816;2022-12-24T05:24:42;41.70;;;24.20;;
36243;SDS011;22284;49.956;19.816;2022-12-24T05:28:01;41.53;;;24.20;;
36243;SDS011;22284;49.956;19.816;2022-12-24T05:31:02;43.10;;;24.27;;
36243;SDS011;22284;49.956;19.816;2022-12-24T05:34:04;42.48;;;24.95;;
36243;SDS011;22284;49.956;19.816;2022-12-24T05:37:06;42.53;;;25.23;;
36243;SDS011;22284;49.956;19.816;2022-12-24T05:40:08;43.93;;;26.87;;
36243;SDS011;22284;49.956;19.816;2022-12-24T05:43:09;42.00;;;25.27;;
36243;SDS011;22284;49.956;19.816;2022-12-24T05:46:11;38.70;;;23.87;;
36243;SDS011;22284;49.956;19.816;2022-12-24T05:49:15;38.23;;;23.55;;
36243;SDS011;22284;49.956;19.816;2022-12-24T05:52:16;35.40;;;20.93;;
36243;SDS011;22284;49.956;19.816;2022-12-24T05:55:17;34.50;;;18.87;;
36243;SDS011;22284;49.956;19.816;2022-12-24T05:58:18;31.30;;;18.90;;
36243;SDS011;22284;49.956;19.816;2022-12-24T06:01:20;30.57;;;18.73;;
36243;SDS011;22284;49.956;19.816;2022-12-24T06:04:22;32.73;;;19.60;;
36243;SDS011;22284;49.956;19.816;2022-12-24T06:07:23;30.43;;;18.53;;
36243;SDS011;22284;49.956;19.816;2022-12-24T06:10:24;33.50;;;19.67;;
36243;SDS011;22284;49.956;19.816;2022-12-24T06:13:25;31.10;;;18.20;;
36243;SDS011;22284;49.956;19.816;2022-12-24T06:16:27;29.47;;;17.27;;
36243;SDS011;22284;49.956;19.816;2022-12-24T06:19:29;31.37;;;17.73;;
36243;SDS011;22284;49.956;19.816;2022-12-24T06:22:30;26.60;;;15.13;;
36243;SDS011;22284;49.956;19.816;2022-12-24T06:25:31;32.13;;;18.30;;
36243;SDS011;22284;49.956;19.816;2022-12-24T06:28:33;31.07;;;18.37;;
36243;SDS011;22284;49.956;19.816;2022-12-24T06:31:37;31.67;;;18.93;;
36243;SDS011;22284;49.956;19.816;2022-12-24T06:34:38;32.08;;;19.10;;
36243;SDS011;22284;49.956;19.816;2022-12-24T06:37:39;31.47;;;18.57;;
36243;SDS011;22284;49.956;19.816;2022-12-24T06:40:41;30.67;;;17.37;;
36243;SDS011;22284;49.956;19.816;2022-12-24T06:43:45;27.60;;;15.40;;
36243;SDS011;22284;49.956;19.816;2022-12-24T06:46:48;26.07;;;15.23;;
36243;SDS011;22284;49.956;19.816;2022-12-24T06:49:49;30.23;;;16.50;;
36243;SDS011;22284;49.956;19.816;2022-12-24T06:52:49;28.05;;;15.72;;
36243;SDS011;22284;49.956;19.816;2022-12-24T06:55:51;25.27;;;14.17;;
36243;SDS011;22284;49.956;19.816;2022-12-24T06:58:52;21.90;;;13.08;;
36243;SDS011;22284;49.956;19.816;2022-12-24T07:01:53;22.17;;;12.27;;
36243;SDS011;22284;49.956;19.816;2022-12-24T07:04:54;22.93;;;13.68;;
36243;SDS011;22284;49.956;19.816;2022-12-24T07:07:55;22.87;;;13.30;;
36243;SDS011;22284;49.956;19.816;2022-12-24T07:10:57;23.12;;;12.65;;
36243;SDS011;22284;49.956;19.816;2022-12-24T07:13:59;24.37;;;14.10;;
36243;SDS011;22284;49.956;19.816;2022-12-24T07:17:00;23.90;;;12.63;;
36243;SDS011;22284;49.956;19.816;2022-12-24T07:20:00;23.57;;;13.53;;
36243;SDS011;22284;49.956;19.816;2022-12-24T07:23:03;25.45;;;15.15;;
36243;SDS011;22284;49.956;19.816;2022-12-24T07:26:04;26.37;;;16.17;;
36243;SDS011;22284;49.956;19.816;2022-12-24T07:29:07;25.30;;;16.20;;
36243;SDS011;22284;49.956;19.816;2022-12-24T07:32:08;27.10;;;17.00;;
36243;SDS011;22284;49.956;19.816;2022-12-24T07:35:09;26.60;;;16.23;;
36243;SDS011;22284;49.956;19.816;2022-12-24T07:38:10;25.85;;;15.00;;
36243;SDS011;22284;49.956;19.816;2022-12-24T07:41:12;22.70;;;12.95;;
36243;SDS011;22284;49.956;19.816;2022-12-24T07:44:13;21.77;;;11.55;;
36243;SDS011;22284;49.956;19.816;2022-12-24T07:47:14;19.25;;;10.05;;
36243;SDS011;22284;49.956;19.816;2022-12-24T07:50:16;17.57;;;9.45;;
36243;SDS011;22284;49.956;19.816;2022-12-24T07:53:17;17.50;;;9.90;;
36243;SDS011;22284;49.956;19.816;2022-12-24T07:56:18;20.32;;;11.43;;
36243;SDS011;22284;49.956;19.816;2022-12-24T07:59:19;19.20;;;11.03;;
36243;SDS011;22284;49.956;19.816;2022-12-24T08:02:21;18.35;;;10.00;;
36243;SDS011;22284;49.956;19.816;2022-12-24T08:05:22;18.23;;;10.48;;
36243;SDS011;22284;49.956;19.816;2022-12-24T08:08:23;19.85;;;11.18;;
36243;SDS011;22284;49.956;19.816;2022-12-24T08:11:24;20.50;;;11.43;;
36243;SDS011;22284;49.956;19.816;2022-12-24T08:14:25;20.50;;;11.05;;
36243;SDS011;22284;49.956;19.816;2022-12-24T08:17:26;20.25;;;11.38;;
36243;SDS011;22284;49.956;19.816;2022-12-24T08:20:27;18.82;;;11.25;;
36243;SDS011;22284;49.956;19.816;2022-12-24T08:23:28;20.43;;;11.38;;
36243;SDS011;22284;49.956;19.816;2022-12-24T08:26:29;18.70;;;10.45;;
36243;SDS011;22284;49.956;19.816;2022-12-24T08:29:30;19.85;;;9.58;;
36243;SDS011;22284;49.956;19.816;2022-12-24T08:32:31;15.48;;;7.50;;
36243;SDS011;22284;49.956;19.816;2022-12-24T08:35:33;8.70;;;4.60;;
36243;SDS011;22284;49.956;19.816;2022-12-24T08:38:34;8.30;;;3.87;;
36243;SDS011;22284;49.956;19.816;2022-12-24T08:41:35;5.60;;;3.00;;
36243;SDS011;22284;49.956;19.816;2022-12-24T08:44:36;6.60;;;3.20;;
36243;SDS011;22284;49.956;19.816;2022-12-24T08:47:37;6.20;;;3.22;;
36243;SDS011;22284;49.956;19.816;2022-12-24T08:50:39;7.00;;;3.80;;
36243;SDS011;22284;49.956;19.816;2022-12-24T08:53:42;5.20;;;3.17;;
36243;SDS011;22284;49.956;19.816;2022-12-24T08:56:43;7.92;;;3.05;;
36243;SDS011;22284;49.956;19.816;2022-12-24T08:59:44;7.30;;;3.50;;
36243;SDS011;22284;49.956;19.816;2022-12-24T09:02:45;6.85;;;3.20;;
36243;SDS011;22284;49.956;19.816;2022-12-24T09:05:46;8.25;;;3.85;;
36243;SDS011;22284;49.956;19.816;2022-12-24T09:08:47;8.00;;;3.75;;
36243;SDS011;22284;49.956;19.816;2022-12-24T09:11:48;8.25;;;3.90;;
36243;SDS011;22284;49.956;19.816;2022-12-24T09:14:50;8.75;;;3.75;;
36243;SDS011;22284;49.956;19.816;2022-12-24T09:17:51;6.00;;;3.05;;
36243;SDS011;22284;49.956;19.816;2022-12-24T09:21:02;10.85;;;3.58;;
36243;SDS011;22284;49.956;19.816;2022-12-24T09:24:07;8.85;;;3.65;;
36243;SDS011;22284;49.956;19.816;2022-12-24T09:27:08;7.12;;;3.60;;
36243;SDS011;22284;49.956;19.816;2022-12-24T09:30:10;7.72;;;3.70;;
36243;SDS011;22284;49.956;19.816;2022-12-24T09:33:12;7.45;;;3.30;;
36243;SDS011;22284;49.956;19.816;2022-12-24T09:36:13;9.13;;;3.83;;
36243;SDS011;22284;49.956;19.816;2022-12-24T09:39:14;6.00;;;3.33;;
36243;SDS011;22284;49.956;19.816;2022-12-24T09:42:22;6.15;;;3.30;;
36243;SDS011;22284;49.956;19.816;2022-12-24T09:45:37;7.90;;;3.47;;
36243;SDS011;22284;49.956;19.816;2022-12-24T09:48:44;10.70;;;4.17;;
36243;SDS011;22284;49.956;19.816;2022-12-24T09:51:50;10.50;;;4.00;;
36243;SDS011;22284;49.956;19.816;2022-12-24T09:55:11;10.30;;;4.12;;
36243;SDS011;22284;49.956;19.816;2022-12-24T09:58:14;10.63;;;4.53;;
36243;SDS011;22284;49.956;19.816;2022-12-24T10:01:19;8.30;;;3.60;;
36243;SDS011;22284;49.956;19.816;2022-12-24T10:04:21;6.33;;;3.30;;
36243;SDS011;22284;49.956;19.816;2022-12-24T10:10:53;7.75;;;3.40;;
36243;SDS011;22284;49.956;19.816;2022-12-24T10:14:05;5.25;;;3.20;;
36243;SDS011;22284;49.956;19.816;2022-12-24T10:21:01;5.95;;;2.87;;
36243;SDS011;22284;49.956;19.816;2022-12-24T10:27:35;6.97;;;3.05;;
36243;SDS011;22284;49.956;19.816;2022-12-24T10:30:41;8.25;;;2.80;;
36243;SDS011;22284;49.956;19.816;2022-12-24T10:33:47;9.45;;;3.35;;
36243;SDS011;22284;49.956;19.816;2022-12-24T10:36:52;10.00;;;3.40;;
36243;SDS011;22284;49.956;19.816;2022-12-24T10:39:54;8.05;;;3.40;;
36243;SDS011;22284;49.956;19.816;2022-12-24T10:42:57;7.22;;;3.45;;
36243;SDS011;22284;49.956;19.816;2022-12-24T10:45:59;8.93;;;3.50;;
36243;SDS011;22284;49.956;19.816;2022-12-24T10:49:04;12.07;;;3.67;;
36243;SDS011;22284;49.956;19.816;2022-12-24T10:52:14;10.20;;;3.80;;
36243;SDS011;22284;49.956;19.816;2022-12-24T10:58:23;11.43;;;3.80;;
36243;SDS011;22284;49.956;19.816;2022-12-24T11:01:43;8.95;;;3.75;;
36243;SDS011;22284;49.956;19.816;2022-12-24T11:04:46;10.45;;;3.60;;
36243;SDS011;22284;49.956;19.816;2022-12-24T11:07:58;9.83;;;3.70;;
36243;SDS011;22284;49.956;19.816;2022-12-24T11:11:06;8.35;;;3.30;;
36243;SDS011;22284;49.956;19.816;2022-12-24T11:14:13;7.17;;;3.15;;
36243;SDS011;22284;49.956;19.816;2022-12-24T11:17:19;5.92;;;3.02;;
36243;SDS011;22284;49.956;19.816;2022-12-24T11:20:23;9.40;;;3.27;;
36243;SDS011;22284;49.956;19.816;2022-12-24T11:23:27;8.73;;;3.10;;
36243;SDS011;22284;49.956;19.816;2022-12-24T11:26:29;9.55;;;3.50;;
36243;SDS011;22284;49.956;19.816;2022-12-24T11:29:30;7.92;;;3.40;;
36243;SDS011;22284;49.956;19.816;2022-12-24T11:32:32;9.50;;;3.40;;
36243;SDS011;22284;49.956;19.816;2022-12-24T11:35:33;6.80;;;3.65;;
36243;SDS011;22284;49.956;19.816;2022-12-24T11:38:42;7.97;;;3.58;;
36243;SDS011;22284;49.956;19.816;2022-12-24T11:41:57;8.40;;;3.60;;
36243;SDS011;22284;49.956;19.816;2022-12-24T11:44:59;9.03;;;3.55;;
36243;SDS011;22284;49.956;19.816;2022-12-24T11:48:21;10.58;;;3.85;;
36243;SDS011;22284;49.956;19.816;2022-12-24T11:51:19;7.58;;;3.20;;
36243;SDS011;22284;49.956;19.816;2022-12-24T11:54:27;10.82;;;3.83;;
36243;SDS011;22284;49.956;19.816;2022-12-24T11:57:34;9.13;;;4.03;;
36243;SDS011;22284;49.956;19.816;2022-12-24T12:00:38;8.18;;;3.92;;
36243;SDS011;22284;49.956;19.816;2022-12-24T12:03:42;10.50;;;4.25;;
36243;SDS011;22284;49.956;19.816;2022-12-24T12:07:09;11.08;;;4.12;;
36243;SDS011;22284;49.956;19.816;2022-12-24T12:10:22;14.03;;;5.00;;
36243;SDS011;22284;49.956;19.816;2022-12-24T12:13:28;12.80;;;4.78;;
36243;SDS011;22284;49.956;19.816;2022-12-24T12:20:05;12.63;;;5.03;;
36243;SDS011;22284;49.956;19.816;2022-12-24T12:26:26;11.53;;;4.33;;
36243;SDS011;22284;49.956;19.816;2022-12-24T12:29:35;11.40;;;4.40;;
36243;SDS011;22284;49.956;19.816;2022-12-24T12:35:56;18.57;;;5.37;;
36243;SDS011;22284;49.956;19.816;2022-12-24T12:39:01;12.68;;;4.37;;
36243;SDS011;22284;49.956;19.816;2022-12-24T12:45:38;15.32;;;4.62;;
36243;SDS011;22284;49.956;19.816;2022-12-24T12:52:34;16.12;;;5.12;;
36243;SDS011;22284;49.956;19.816;2022-12-24T12:56:06;10.23;;;5.12;;
36243;SDS011;22284;49.956;19.816;2022-12-24T13:09:24;12.43;;;5.42;;
36243;SDS011;22284;49.956;19.816;2022-12-24T13:20:30;10.40;;;5.33;;
36243;SDS011;22284;49.956;19.816;2022-12-24T13:23:33;16.80;;;6.25;;
36243;SDS011;22284;49.956;19.816;2022-12-24T13:26:34;12.50;;;5.60;;
36243;SDS011;22284;49.956;19.816;2022-12-24T13:32:46;16.12;;;5.90;;
36243;SDS011;22284;49.956;19.816;2022-12-24T13:35:56;16.35;;;6.87;;
36243;SDS011;22284;49.956;19.816;2022-12-24T13:39:10;20.12;;;8.45;;
36243;SDS011;22284;49.956;19.816;2022-12-24T13:42:25;16.90;;;7.40;;
36243;SDS011;22284;49.956;19.816;2022-12-24T13:48:42;18.60;;;8.55;;
36243;SDS011;22284;49.956;19.816;2022-12-24T13:51:43;18.37;;;8.03;;
36243;SDS011;22284;49.956;19.816;2022-12-24T13:58:01;19.82;;;8.65;;
36243;SDS011;22284;49.956;19.816;2022-12-24T14:01:07;20.60;;;8.35;;
36243;SDS011;22284;49.956;19.816;2022-12-24T14:04:19;19.98;;;8.63;;
36243;SDS011;22284;49.956;19.816;2022-12-24T14:07:23;19.47;;;8.40;;
36243;SDS011;22284;49.956;19.816;2022-12-24T14:10:25;19.07;;;7.58;;
36243;SDS011;22284;49.956;19.816;2022-12-24T14:16:45;18.80;;;8.78;;
36243;SDS011;22284;49.956;19.816;2022-12-24T14:19:51;17.55;;;8.00;;
36243;SDS011;22284;49.956;19.816;2022-12-24T14:22:58;18.45;;;8.65;;
36243;SDS011;22284;49.956;19.816;2022-12-24T14:26:00;22.77;;;9.83;;
36243;SDS011;22284;49.956;19.816;2022-12-24T14:32:12;17.75;;;7.72;;
36243;SDS011;22284;49.956;19.816;2022-12-24T14:35:17;20.72;;;8.43;;
36243;SDS011;22284;49.956;19.816;2022-12-24T14:38:28;31.50;;;12.00;;
36243;SDS011;22284;49.956;19.816;2022-12-24T14:41:42;23.57;;;10.82;;
36243;SDS011;22284;49.956;19.816;2022-12-24T14:44:58;25.10;;;10.48;;
36243;SDS011;22284;49.956;19.816;2022-12-24T14:58:38;31.02;;;14.00;;
36243;SDS011;22284;49.956;19.816;2022-12-24T15:01:40;26.65;;;13.72;;
36243;SDS011;22284;49.956;19.816;2022-12-24T15:04:41;30.57;;;15.58;;
36243;SDS011;22284;49.956;19.816;2022-12-24T15:07:46;30.60;;;16.75;;
36243;SDS011;22284;49.956;19.816;2022-12-24T15:11:01;29.35;;;15.08;;
36243;SDS011;22284;49.956;19.816;2022-12-24T15:14:05;31.80;;;17.35;;
36243;SDS011;22284;49.956;19.816;2022-12-24T15:17:09;31.95;;;16.00;;
36243;SDS011;22284;49.956;19.816;2022-12-24T15:20:16;31.07;;;16.25;;
36243;SDS011;22284;49.956;19.816;2022-12-24T15:23:25;32.80;;;16.73;;
36243;SDS011;22284;49.956;19.816;2022-12-24T15:26:32;30.40;;;16.55;;
36243;SDS011;22284;49.956;19.816;2022-12-24T15:29:38;31.27;;;17.02;;
36243;SDS011;22284;49.956;19.816;2022-12-24T15:32:41;35.48;;;17.85;;
36243;SDS011;22284;49.956;19.816;2022-12-24T15:35:55;41.00;;;18.90;;
36243;SDS011;22284;49.956;19.816;2022-12-24T15:38:57;35.28;;;17.07;;
36243;SDS011;22284;49.956;19.816;2022-12-24T15:42:01;32.53;;;17.25;;
36243;SDS011;22284;49.956;19.816;2022-12-24T15:45:16;34.08;;;18.27;;
36243;SDS011;22284;49.956;19.816;2022-12-24T15:48:27;35.95;;;17.87;;
36243;SDS011;22284;49.956;19.816;2022-12-24T15:51:34;35.08;;;17.92;;
36243;SDS011;22284;49.956;19.816;2022-12-24T15:54:38;35.38;;;17.98;;
36243;SDS011;22284;49.956;19.816;2022-12-24T15:57:48;31.60;;;15.38;;
36243;SDS011;22284;49.956;19.816;2022-12-24T16:00:59;32.33;;;15.38;;
36243;SDS011;22284;49.956;19.816;2022-12-24T16:04:14;32.75;;;16.40;;
36243;SDS011;22284;49.956;19.816;2022-12-24T16:07:25;32.93;;;16.15;;
36243;SDS011;22284;49.956;19.816;2022-12-24T16:10:29;31.62;;;15.93;;
36243;SDS011;22284;49.956;19.816;2022-12-24T16:13:31;29.45;;;13.53;;
36243;SDS011;22284;49.956;19.816;2022-12-24T16:16:36;23.92;;;11.68;;
36243;SDS011;22284;49.956;19.816;2022-12-24T16:19:45;27.65;;;11.80;;
36243;SDS011;22284;49.956;19.816;2022-12-24T16:22:48;24.10;;;10.98;;
36243;SDS011;22284;49.956;19.816;2022-12-24T16:25:50;20.97;;;10.53;;
36243;SDS011;22284;49.956;19.816;2022-12-24T16:28:55;23.67;;;11.35;;
36243;SDS011;22284;49.956;19.816;2022-12-24T16:31:57;25.43;;;11.78;;
36243;SDS011;22284;49.956;19.816;2022-12-24T16:34:58;18.73;;;8.70;;
36243;SDS011;22284;49.956;19.816;2022-12-24T16:38:03;28.57;;;11.75;;
36243;SDS011;22284;49.956;19.816;2022-12-24T16:41:04;24.65;;;10.38;;
36243;SDS011;22284;49.956;19.816;2022-12-24T16:44:05;27.65;;;11.08;;
36243;SDS011;22284;49.956;19.816;2022-12-24T16:47:20;30.08;;;12.58;;
36243;SDS011;22284;49.956;19.816;2022-12-24T16:50:27;30.45;;;11.55;;
36243;SDS011;22284;49.956;19.816;2022-12-24T16:53:28;22.90;;;9.98;;
36243;SDS011;22284;49.956;19.816;2022-12-24T16:56:30;25.50;;;10.93;;
36243;SDS011;22284;49.956;19.816;2022-12-24T16:59:31;25.23;;;10.35;;
36243;SDS011;22284;49.956;19.816;2022-12-24T17:02:31;26.73;;;10.53;;
36243;SDS011;22284;49.956;19.816;2022-12-24T17:05:35;23.18;;;9.95;;
36243;SDS011;22284;49.956;19.816;2022-12-24T17:08:41;27.48;;;10.72;;
36243;SDS011;22284;49.956;19.816;2022-12-24T17:11:42;21.23;;;9.38;;
36243;SDS011;22284;49.956;19.816;2022-12-24T17:14:43;23.55;;;9.68;;
36243;SDS011;22284;49.956;19.816;2022-12-24T17:17:44;26.33;;;10.05;;
36243;SDS011;22284;49.956;19.816;2022-12-24T17:20:55;25.97;;;10.45;;
36243;SDS011;22284;49.956;19.816;2022-12-24T17:24:03;23.95;;;10.32;;
36243;SDS011;22284;49.956;19.816;2022-12-24T17:27:05;25.95;;;9.55;;
36243;SDS011;22284;49.956;19.816;2022-12-24T17:30:06;22.17;;;9.30;;
36243;SDS011;22284;49.956;19.816;2022-12-24T17:33:09;22.55;;;9.50;;
36243;SDS011;22284;49.956;19.816;2022-12-24T17:36:10;25.37;;;9.60;;
36243;SDS011;22284;49.956;19.816;2022-12-24T17:39:11;25.15;;;9.13;;
36243;SDS011;22284;49.956;19.816;2022-12-24T17:42:12;18.73;;;8.10;;
36243;SDS011;22284;49.956;19.816;2022-12-24T17:45:13;22.42;;;8.78;;
36243;SDS011;22284;49.956;19.816;2022-12-24T17:48:14;24.23;;;8.83;;
36243;SDS011;22284;49.956;19.816;2022-12-24T17:51:17;20.27;;;8.55;;
36243;SDS011;22284;49.956;19.816;2022-12-24T17:54:21;19.52;;;8.25;;
36243;SDS011;22284;49.956;19.816;2022-12-24T17:57:22;19.75;;;8.08;;
36243;SDS011;22284;49.956;19.816;2022-12-24T18:00:23;21.68;;;8.30;;
36243;SDS011;22284;49.956;19.816;2022-12-24T18:03:24;19.20;;;8.08;;
36243;SDS011;22284;49.956;19.816;2022-12-24T18:06:26;20.20;;;7.85;;
36243;SDS011;22284;49.956;19.816;2022-12-24T18:09:27;24.32;;;9.73;;
36243;SDS011;22284;49.956;19.816;2022-12-24T18:12:29;21.02;;;8.95;;
36243;SDS011;22284;49.956;19.816;2022-12-24T18:15:32;22.42;;;10.23;;
36243;SDS011;22284;49.956;19.816;2022-12-24T18:18:36;22.20;;;9.25;;
36243;SDS011;22284;49.956;19.816;2022-12-24T18:21:37;21.65;;;8.68;;
36243;SDS011;22284;49.956;19.816;2022-12-24T18:24:39;22.00;;;8.95;;
36243;SDS011;22284;49.956;19.816;2022-12-24T18:27:40;19.80;;;7.78;;
36243;SDS011;22284;49.956;19.816;2022-12-24T18:30:41;21.20;;;7.83;;
36243;SDS011;22284;49.956;19.816;2022-12-24T18:33:43;16.15;;;6.72;;
36243;SDS011;22284;49.956;19.816;2022-12-24T18:39:46;17.73;;;7.45;;
36243;SDS011;22284;49.956;19.816;2022-12-24T18:42:47;19.42;;;7.72;;
36243;SDS011;22284;49.956;19.816;2022-12-24T18:45:48;18.45;;;7.10;;
36243;SDS011;22284;49.956;19.816;2022-12-24T18:48:50;18.15;;;6.97;;
36243;SDS011;22284;49.956;19.816;2022-12-24T18:51:53;17.87;;;6.23;;
36243;SDS011;22284;49.956;19.816;2022-12-24T18:54:54;15.00;;;6.47;;
36243;SDS011;22284;49.956;19.816;2022-12-24T18:57:55;19.48;;;6.65;;
36243;SDS011;22284;49.956;19.816;2022-12-24T19:00:56;17.75;;;5.80;;
36243;SDS011;22284;49.956;19.816;2022-12-24T19:03:57;16.87;;;6.28;;
36243;SDS011;22284;49.956;19.816;2022-12-24T19:06:59;17.55;;;6.20;;
36243;SDS011;22284;49.956;19.816;2022-12-24T19:10:00;16.10;;;5.97;;
36243;SDS011;22284;49.956;19.816;2022-12-24T19:13:02;17.35;;;6.55;;
36243;SDS011;22284;49.956;19.816;2022-12-24T19:16:03;15.00;;;6.05;;
36243;SDS011;22284;49.956;19.816;2022-12-24T19:22:08;19.25;;;5.92;;
36243;SDS011;22284;49.956;19.816;2022-12-24T19:25:09;15.65;;;5.90;;
36243;SDS011;22284;49.956;19.816;2022-12-24T19:28:10;17.98;;;6.70;;
36243;SDS011;22284;49.956;19.816;2022-12-24T19:31:13;16.80;;;7.62;;